Iron Gates, Missouri
Current Conditions -  °F | °C
As of 3:53 AM on Sunday 23 Nov 2014 (Local Time) from KJLN Reporting Station
Overcast Overcast  
Wind Chill: 58°   Ceiling: 1500
Heat Index: 58°   Visibility: 10mi
Dew Point: 54°   Wind: 9mph
Humidity: 87%   Direction: 150°SSE
Pressure: 29.6"   Gusts: NA
Location:  37.1074°N, 94.5218°W
Report Text: KJLN 230953Z AUTO 15008KT 10SM OVC015 14/12 A2960 RMK AO2 RAB35E48 SLP019 P0000 T01440122
Loading
Personal Weather Stations






























Interactive Weather Map New forecast layout! Learn more

10-Day Weather Forecast

Advertisements
Track Severe Weather on mobile